createdAt,value
2019-03-24T00:01:01.338Z,3.10
2019-03-24T00:03:29.247Z,3.20
2019-03-24T00:05:57.163Z,3.20
2019-03-24T00:08:25.077Z,3.10
2019-03-24T00:10:52.955Z,3.00
2019-03-24T00:13:20.949Z,3.00
2019-03-24T00:15:48.952Z,3.00
2019-03-24T00:18:16.848Z,3.00
2019-03-24T00:20:44.708Z,3.00
2019-03-24T00:23:12.576Z,2.90
2019-03-24T00:25:40.452Z,2.90
2019-03-24T00:28:08.303Z,2.80
2019-03-24T00:30:36.237Z,2.90
2019-03-24T00:33:04.126Z,2.80
2019-03-24T00:35:32.030Z,2.70
2019-03-24T00:37:59.906Z,2.70
2019-03-24T00:40:27.873Z,2.60
2019-03-24T00:42:55.824Z,2.60
2019-03-24T00:45:23.721Z,2.60
2019-03-24T00:47:51.749Z,2.60
2019-03-24T00:50:19.605Z,2.60
2019-03-24T00:52:47.502Z,2.50
2019-03-24T00:55:15.380Z,2.40
2019-03-24T00:57:43.287Z,2.40
2019-03-24T01:00:11.195Z,2.40
2019-03-24T01:02:39.252Z,2.40
2019-03-24T01:05:07.152Z,2.40
2019-03-24T01:07:35.126Z,2.40
2019-03-24T01:10:03.104Z,2.30
2019-03-24T01:12:30.969Z,2.40
2019-03-24T01:14:58.865Z,2.40
2019-03-24T01:17:26.725Z,2.40
2019-03-24T01:19:54.681Z,2.30
2019-03-24T01:22:22.671Z,2.30
2019-03-24T01:24:50.633Z,2.30
2019-03-24T01:27:18.519Z,2.20
2019-03-24T01:29:46.456Z,2.20
2019-03-24T01:32:14.323Z,2.20
2019-03-24T01:34:42.311Z,2.10
2019-03-24T01:37:10.180Z,2.10
2019-03-24T01:39:38.592Z,2.10
2019-03-24T01:42:06.522Z,2.10
2019-03-24T01:44:34.410Z,2.00
2019-03-24T01:47:02.318Z,2.00
2019-03-24T01:49:30.239Z,2.00
2019-03-24T01:51:58.185Z,1.90
2019-03-24T01:54:26.101Z,1.90
2019-03-24T01:56:54.022Z,1.90
2019-03-24T01:59:21.910Z,1.90
2019-03-24T02:01:49.860Z,1.90
2019-03-24T02:04:17.754Z,1.90
2019-03-24T02:06:45.658Z,1.80
2019-03-24T02:09:13.619Z,1.80
2019-03-24T02:11:41.507Z,1.90
2019-03-24T02:14:09.393Z,1.90
2019-03-24T02:16:37.278Z,1.80
2019-03-24T02:19:05.190Z,1.80
2019-03-24T02:21:33.162Z,1.70
2019-03-24T02:24:01.014Z,1.70
2019-03-24T02:26:28.911Z,1.70
2019-03-24T02:28:56.819Z,1.60
2019-03-24T02:31:24.832Z,1.60
2019-03-24T02:33:52.856Z,1.60
2019-03-24T02:36:20.834Z,1.60
2019-03-24T02:38:48.881Z,1.50
2019-03-24T02:41:16.738Z,1.50
2019-03-24T02:43:44.656Z,1.50
2019-03-24T02:46:23.605Z,1.50
2019-03-24T02:48:42.246Z,1.60
2019-03-24T02:51:10.121Z,1.60
2019-03-24T02:53:37.994Z,1.50
2019-03-24T02:56:05.967Z,1.50
2019-03-24T02:58:33.886Z,1.50
2019-03-24T03:01:01.895Z,1.40
2019-03-24T03:03:29.954Z,1.40
2019-03-24T03:05:58.034Z,1.40
2019-03-24T03:08:25.933Z,1.40
2019-03-24T03:10:53.811Z,1.40
2019-03-24T03:13:21.684Z,1.30
2019-03-24T03:15:49.581Z,1.30
2019-03-24T03:18:17.463Z,1.30
2019-03-24T03:20:45.381Z,1.30
2019-03-24T03:23:13.398Z,1.30
2019-03-24T03:25:41.279Z,1.30
2019-03-24T03:28:09.274Z,1.30
2019-03-24T03:30:37.159Z,1.30
2019-03-24T03:33:05.204Z,1.30
2019-03-24T03:35:33.208Z,1.40
2019-03-24T03:38:01.120Z,1.40
2019-03-24T03:40:29.096Z,1.50
2019-03-24T03:42:57.069Z,1.40
2019-03-24T03:45:25.039Z,1.40
2019-03-24T03:47:52.998Z,1.30
2019-03-24T03:50:21.026Z,1.20
2019-03-24T03:52:49.071Z,1.20
2019-03-24T03:55:17.012Z,1.20
2019-03-24T03:57:44.948Z,1.20
2019-03-24T04:00:12.827Z,1.20
2019-03-24T04:02:40.703Z,1.20
2019-03-24T04:05:08.607Z,1.10
2019-03-24T04:07:36.476Z,1.20
2019-03-24T04:10:04.378Z,1.10
2019-03-24T04:12:32.254Z,1.20
2019-03-24T04:15:00.539Z,1.20
2019-03-24T04:17:28.525Z,1.20
2019-03-24T04:19:56.516Z,1.20
2019-03-24T04:22:24.474Z,1.20
2019-03-24T04:24:52.479Z,1.20
2019-03-24T04:27:20.479Z,1.20
2019-03-24T04:29:48.366Z,1.20
2019-03-24T04:32:16.258Z,1.20
2019-03-24T04:34:44.161Z,1.30
2019-03-24T04:37:12.044Z,1.30
2019-03-24T04:39:40.053Z,1.30
2019-03-24T04:42:07.917Z,1.30
2019-03-24T04:44:35.830Z,1.30
2019-03-24T04:47:03.719Z,1.30
2019-03-24T04:49:31.740Z,1.30
2019-03-24T04:51:59.649Z,1.30
2019-03-24T04:54:27.568Z,1.30
2019-03-24T04:56:55.457Z,1.30
2019-03-24T04:59:23.403Z,1.40
2019-03-24T05:01:51.291Z,1.40
2019-03-24T05:04:19.300Z,1.40
2019-03-24T05:06:47.169Z,1.40
2019-03-24T05:09:15.047Z,1.30
2019-03-24T05:11:42.901Z,1.30
2019-03-24T05:14:10.771Z,1.30
2019-03-24T05:16:38.670Z,1.20
2019-03-24T05:19:06.568Z,1.20
2019-03-24T05:21:34.465Z,1.20
2019-03-24T05:24:02.329Z,1.10
2019-03-24T05:26:30.220Z,1.00
2019-03-24T05:28:58.108Z,1.00
2019-03-24T05:31:26.100Z,1.00
2019-03-24T05:33:53.984Z,0.90
2019-03-24T05:36:21.856Z,0.90
2019-03-24T05:38:49.744Z,1.00
2019-03-24T05:41:17.638Z,1.00
2019-03-24T05:43:45.496Z,1.00
2019-03-24T05:46:13.405Z,1.00
2019-03-24T05:48:41.280Z,1.00
2019-03-24T05:51:09.202Z,1.00
2019-03-24T05:53:37.186Z,1.00
2019-03-24T05:56:05.065Z,1.10
2019-03-24T05:58:32.938Z,1.20
2019-03-24T06:01:00.921Z,1.20
2019-03-24T06:03:28.891Z,1.30
2019-03-24T06:05:56.864Z,1.30
2019-03-24T06:08:24.707Z,1.40
2019-03-24T06:10:52.622Z,1.40
2019-03-24T06:13:20.513Z,1.40
2019-03-24T06:15:48.431Z,1.40
2019-03-24T06:18:16.322Z,1.50
2019-03-24T06:20:44.305Z,1.50
2019-03-24T06:23:12.181Z,1.50
2019-03-24T06:25:40.071Z,1.60
2019-03-24T06:28:07.969Z,1.70
2019-03-24T06:30:35.857Z,1.70
2019-03-24T06:33:03.780Z,1.80
2019-03-24T06:35:31.672Z,1.80
2019-03-24T06:37:59.555Z,1.90
2019-03-24T06:40:27.437Z,2.00
2019-03-24T06:42:55.418Z,2.10
2019-03-24T06:45:28.409Z,2.20
2019-03-24T06:47:57.852Z,2.20
2019-03-24T06:50:22.579Z,2.20
2019-03-24T06:52:50.467Z,2.30
2019-03-24T06:55:18.354Z,2.40
2019-03-24T06:57:46.279Z,2.50
2019-03-24T07:00:14.179Z,2.60
2019-03-24T07:02:42.066Z,2.60
2019-03-24T07:05:10.039Z,2.60
2019-03-24T07:07:37.923Z,2.80
2019-03-24T07:10:05.895Z,2.80
2019-03-24T07:12:33.783Z,2.90
2019-03-24T07:15:01.678Z,3.00
2019-03-24T07:17:29.601Z,3.10
2019-03-24T07:19:57.492Z,3.30
2019-03-24T07:22:25.461Z,3.40
2019-03-24T07:24:53.351Z,3.60
2019-03-24T07:27:21.279Z,3.70
2019-03-24T07:29:49.168Z,3.80
2019-03-24T07:32:17.163Z,3.90
2019-03-24T07:34:45.115Z,4.10
2019-03-24T07:37:13.023Z,4.20
2019-03-24T07:39:40.945Z,4.30
2019-03-24T07:42:09.004Z,4.50
2019-03-24T07:44:36.879Z,4.50
2019-03-24T07:47:04.794Z,4.70
2019-03-24T07:49:32.753Z,4.80
2019-03-24T07:52:00.659Z,5.00
2019-03-24T07:54:28.657Z,5.20
2019-03-24T07:56:56.540Z,5.40
2019-03-24T07:59:24.523Z,5.60
2019-03-24T08:01:52.411Z,5.80
2019-03-24T08:04:20.344Z,6.00
2019-03-24T08:06:48.313Z,6.20
2019-03-24T08:09:16.314Z,6.50
2019-03-24T08:11:44.230Z,6.70
2019-03-24T08:14:12.193Z,6.90
2019-03-24T08:16:40.063Z,7.00
2019-03-24T08:19:08.017Z,7.10
2019-03-24T08:21:35.890Z,7.20
2019-03-24T08:24:03.790Z,7.40
2019-03-24T08:26:31.745Z,7.50
2019-03-24T08:28:59.679Z,7.70
2019-03-24T08:31:27.627Z,7.80
2019-03-24T08:33:55.509Z,7.90
2019-03-24T08:36:23.387Z,7.90
2019-03-24T08:38:51.318Z,7.90
2019-03-24T08:41:19.215Z,7.90
2019-03-24T08:43:47.161Z,8.00
2019-03-24T08:46:15.147Z,8.00
2019-03-24T08:48:43.128Z,8.00
2019-03-24T08:51:11.138Z,8.10
2019-03-24T08:53:39.002Z,8.10
2019-03-24T08:56:06.907Z,8.20
2019-03-24T08:58:34.799Z,8.30
2019-03-24T09:01:02.710Z,8.40
2019-03-24T09:03:32.555Z,8.50
2019-03-24T09:06:00.371Z,8.50
2019-03-24T09:08:28.315Z,8.60
2019-03-24T09:10:56.198Z,8.80
2019-03-24T09:13:24.074Z,8.90
2019-03-24T09:15:51.982Z,9.10
2019-03-24T09:18:19.855Z,9.20
2019-03-24T09:20:47.836Z,9.20
2019-03-24T09:23:15.903Z,9.30
2019-03-24T09:25:43.974Z,9.30
2019-03-24T09:28:11.975Z,9.30
2019-03-24T09:30:39.871Z,9.40
2019-03-24T09:33:07.852Z,9.40
2019-03-24T09:35:35.728Z,9.40
2019-03-24T09:38:03.638Z,9.50
2019-03-24T09:40:31.533Z,9.60
2019-03-24T09:42:59.423Z,9.60
2019-03-24T09:45:27.365Z,9.70
2019-03-24T09:47:55.415Z,9.80
2019-03-24T09:50:23.330Z,9.90
2019-03-24T09:52:51.334Z,10.00
2019-03-24T09:55:19.235Z,10.10
2019-03-24T09:57:48.906Z,10.20
2019-03-24T10:00:16.870Z,10.50
2019-03-24T10:02:44.750Z,10.60
2019-03-24T10:05:12.737Z,10.80
2019-03-24T10:07:40.632Z,10.80
2019-03-24T10:10:08.636Z,10.90
2019-03-24T10:12:36.667Z,11.10
2019-03-24T10:15:04.820Z,11.20
2019-03-24T10:17:32.849Z,11.30
2019-03-24T10:20:00.778Z,11.40
2019-03-24T10:22:28.785Z,11.60
2019-03-24T10:24:56.816Z,11.70
2019-03-24T10:27:24.806Z,11.80
2019-03-24T10:29:52.785Z,11.80
2019-03-24T10:32:20.768Z,11.80
2019-03-24T10:34:48.658Z,12.00
2019-03-24T10:37:16.586Z,12.20
2019-03-24T10:39:44.510Z,12.40
2019-03-24T10:42:12.384Z,12.50
2019-03-24T10:44:40.484Z,12.50
2019-03-24T10:47:08.635Z,12.60
2019-03-24T10:49:36.655Z,12.60
2019-03-24T10:52:04.735Z,12.50
2019-03-24T10:54:32.702Z,12.60
2019-03-24T10:57:00.743Z,12.60
2019-03-24T10:59:28.711Z,12.70
2019-03-24T11:01:56.683Z,12.80
2019-03-24T11:04:24.565Z,12.90
2019-03-24T11:06:52.499Z,12.90
2019-03-24T11:09:20.481Z,13.00
2019-03-24T11:11:48.368Z,13.10
2019-03-24T11:14:16.437Z,13.10
2019-03-24T11:16:44.403Z,13.20
2019-03-24T11:19:12.309Z,13.30
2019-03-24T11:21:40.302Z,13.30
2019-03-24T11:24:08.298Z,13.30
2019-03-24T11:26:36.235Z,13.30
2019-03-24T11:29:04.298Z,13.40
2019-03-24T11:31:32.268Z,13.40
2019-03-24T11:34:00.253Z,13.40
2019-03-24T11:36:28.114Z,13.60
2019-03-24T11:38:56.024Z,13.50
2019-03-24T11:41:23.916Z,13.60
2019-03-24T11:43:51.914Z,13.60
2019-03-24T11:46:20.291Z,13.50
2019-03-24T11:48:48.333Z,13.50
2019-03-24T11:51:16.274Z,13.60
2019-03-24T11:53:44.555Z,13.70
2019-03-24T11:56:12.518Z,13.60
2019-03-24T11:58:40.513Z,13.60
2019-03-24T12:01:08.494Z,13.80
2019-03-24T12:03:36.375Z,13.90
2019-03-24T12:06:13.866Z,13.90
2019-03-24T12:08:33.947Z,14.10
2019-03-24T12:11:01.907Z,14.20
2019-03-24T12:13:29.875Z,14.00
2019-03-24T12:15:57.783Z,13.80
2019-03-24T12:18:25.796Z,13.60
2019-03-24T12:20:53.772Z,13.30
2019-03-24T12:23:21.745Z,13.20
2019-03-24T12:25:49.711Z,13.10
2019-03-24T12:28:17.673Z,13.20
2019-03-24T12:30:45.561Z,13.20
2019-03-24T12:33:13.550Z,13.20
2019-03-24T12:35:41.426Z,13.00
2019-03-24T12:38:09.312Z,13.00
2019-03-24T12:40:37.299Z,13.10
2019-03-24T12:43:05.220Z,13.00
2019-03-24T12:45:33.773Z,13.00
2019-03-24T12:48:01.946Z,13.00
2019-03-24T12:50:31.697Z,13.10
2019-03-24T12:52:59.620Z,13.00
2019-03-24T12:55:27.584Z,13.00
2019-03-24T12:57:55.518Z,13.20
2019-03-24T13:00:23.408Z,13.30
2019-03-24T13:02:51.386Z,13.40
2019-03-24T13:05:19.264Z,13.70
2019-03-24T13:07:47.178Z,13.90
2019-03-24T13:10:15.100Z,13.90
2019-03-24T13:12:43.092Z,13.80
2019-03-24T13:15:30.013Z,13.80
2019-03-24T13:17:58.071Z,13.80
2019-03-24T13:20:37.829Z,13.80
2019-03-24T13:22:55.953Z,13.80
2019-03-24T13:25:25.044Z,13.90
2019-03-24T13:27:53.188Z,14.00
2019-03-24T13:30:21.404Z,14.30
2019-03-24T13:32:49.482Z,14.30
2019-03-24T13:35:17.601Z,14.30
2019-03-24T13:37:45.599Z,14.40
2019-03-24T13:40:13.943Z,14.50
2019-03-24T13:42:42.185Z,14.20
2019-03-24T13:45:10.491Z,14.10
2019-03-24T13:47:38.608Z,14.00
2019-03-24T13:50:06.713Z,13.90
2019-03-24T13:52:34.811Z,13.90
2019-03-24T13:55:02.852Z,13.80
2019-03-24T13:57:31.051Z,13.70
2019-03-24T13:59:59.151Z,13.70
2019-03-24T14:02:27.127Z,13.80
2019-03-24T14:04:55.300Z,13.90
2019-03-24T14:07:23.386Z,13.70
2019-03-24T14:09:51.443Z,13.80
2019-03-24T14:12:19.650Z,13.80
2019-03-24T14:14:47.791Z,13.70
2019-03-24T14:17:15.902Z,13.60
2019-03-24T14:19:44.096Z,13.50
2019-03-24T14:22:15.373Z,13.50
2019-03-24T14:24:43.435Z,13.30
2019-03-24T14:27:11.428Z,13.10
2019-03-24T14:29:39.550Z,13.10
2019-03-24T14:32:07.726Z,13.00
2019-03-24T14:34:35.784Z,12.90
2019-03-24T14:37:03.810Z,13.00
2019-03-24T14:39:32.022Z,13.00
2019-03-24T14:42:00.117Z,12.80
2019-03-24T14:44:28.266Z,12.70
2019-03-24T14:46:56.386Z,12.70
2019-03-24T14:49:24.531Z,12.70
2019-03-24T14:51:52.595Z,12.60
2019-03-24T14:54:20.771Z,12.60
2019-03-24T14:56:48.775Z,12.50
2019-03-24T14:59:16.859Z,12.40
2019-03-24T15:01:45.063Z,12.50
2019-03-24T15:04:13.185Z,12.50
2019-03-24T15:06:41.372Z,12.50
2019-03-24T15:09:09.434Z,12.40
2019-03-24T15:11:38.708Z,12.30
2019-03-24T15:14:06.780Z,12.20
2019-03-24T15:16:34.822Z,12.10
2019-03-24T15:19:02.919Z,12.00
2019-03-24T15:21:31.030Z,11.90
2019-03-24T15:23:59.112Z,11.80
2019-03-24T15:26:27.229Z,11.70
2019-03-24T15:28:55.327Z,11.60
2019-03-24T15:31:23.405Z,11.60
2019-03-24T15:33:51.516Z,11.60
2019-03-24T15:36:19.620Z,11.50
2019-03-24T15:38:47.761Z,11.50
2019-03-24T15:41:18.195Z,11.50
2019-03-24T15:43:45.660Z,11.40
2019-03-24T15:46:13.868Z,11.50
2019-03-24T15:48:41.922Z,11.50
2019-03-24T15:51:28.856Z,11.40
2019-03-24T15:53:57.212Z,11.40
2019-03-24T15:56:25.303Z,11.20
2019-03-24T15:58:53.361Z,11.20
2019-03-24T16:01:21.556Z,11.20
2019-03-24T16:03:49.583Z,11.10
2019-03-24T16:06:17.495Z,11.10
2019-03-24T16:08:45.646Z,11.00
2019-03-24T16:11:16.055Z,11.00
2019-03-24T16:13:43.636Z,11.00
2019-03-24T16:16:11.774Z,11.00
2019-03-24T16:18:40.305Z,11.00
2019-03-24T16:21:08.336Z,11.00
2019-03-24T16:23:36.372Z,10.90
2019-03-24T16:26:04.487Z,10.90
2019-03-24T16:28:32.481Z,10.90
2019-03-24T16:31:00.505Z,10.80
2019-03-24T16:33:28.494Z,10.80
2019-03-24T16:35:56.590Z,10.80
2019-03-24T16:38:24.736Z,10.80
2019-03-24T16:40:52.859Z,10.80
2019-03-24T16:43:21.012Z,10.80
2019-03-24T16:45:49.146Z,10.80
2019-03-24T16:48:17.281Z,10.80
2019-03-24T16:50:45.405Z,10.80
2019-03-24T16:53:13.493Z,10.80
2019-03-24T16:55:41.633Z,10.80
2019-03-24T16:58:09.688Z,10.80
2019-03-24T17:00:37.704Z,10.80
2019-03-24T17:03:05.581Z,10.80
2019-03-24T17:05:33.603Z,10.90
2019-03-24T17:08:01.782Z,10.90
2019-03-24T17:10:29.829Z,10.80
2019-03-24T17:12:58.005Z,10.70
2019-03-24T17:15:26.141Z,10.70
2019-03-24T17:17:54.306Z,10.60
2019-03-24T17:20:22.424Z,10.60
2019-03-24T17:22:50.571Z,10.50
2019-03-24T17:25:18.635Z,10.50
2019-03-24T17:27:46.877Z,10.40
2019-03-24T17:30:14.979Z,10.30
2019-03-24T17:32:43.185Z,10.20
2019-03-24T17:35:11.330Z,10.10
2019-03-24T17:37:39.444Z,9.90
2019-03-24T17:40:07.603Z,9.80
2019-03-24T17:42:35.816Z,9.70
2019-03-24T17:45:05.111Z,9.50
2019-03-24T17:47:33.196Z,9.40
2019-03-24T17:50:01.256Z,9.30
2019-03-24T17:52:29.217Z,9.20
2019-03-24T17:54:57.310Z,9.10
2019-03-24T17:57:25.399Z,9.00
2019-03-24T17:59:53.392Z,8.90
2019-03-24T18:02:21.482Z,8.80
2019-03-24T18:04:49.429Z,8.70
2019-03-24T18:07:17.425Z,8.60
2019-03-24T18:09:45.483Z,8.50
2019-03-24T18:12:13.477Z,8.50
2019-03-24T18:14:41.573Z,8.30
2019-03-24T18:17:09.628Z,8.30
2019-03-24T18:19:37.742Z,8.20
2019-03-24T18:22:11.477Z,8.20
2019-03-24T18:24:35.892Z,8.10
2019-03-24T18:27:04.020Z,8.00
2019-03-24T18:29:51.056Z,7.90
2019-03-24T18:32:19.263Z,7.90
2019-03-24T18:34:47.364Z,7.80
2019-03-24T18:37:15.593Z,7.80
2019-03-24T18:39:43.641Z,7.70
2019-03-24T18:42:11.616Z,7.60
2019-03-24T18:44:39.564Z,7.50
2019-03-24T18:47:07.449Z,7.40
2019-03-24T18:49:35.363Z,7.40
2019-03-24T18:52:03.475Z,7.30
2019-03-24T18:54:31.556Z,7.20
2019-03-24T18:56:59.516Z,7.10
2019-03-24T18:59:27.437Z,7.10
2019-03-24T19:01:55.339Z,7.00
2019-03-24T19:04:23.358Z,7.00
2019-03-24T19:06:51.329Z,7.00
2019-03-24T19:09:19.401Z,6.90
2019-03-24T19:11:47.436Z,6.90
2019-03-24T19:14:15.396Z,6.80
2019-03-24T19:16:43.302Z,6.70
2019-03-24T19:19:11.386Z,6.60
2019-03-24T19:21:39.321Z,6.60
2019-03-24T19:24:07.309Z,6.50
2019-03-24T19:26:35.409Z,6.40
2019-03-24T19:29:03.308Z,6.30
2019-03-24T19:31:31.328Z,6.30
2019-03-24T19:33:59.207Z,6.20
2019-03-24T19:36:27.214Z,6.20
2019-03-24T19:38:55.213Z,6.20
2019-03-24T19:41:23.091Z,6.10
2019-03-24T19:43:51.093Z,6.00
2019-03-24T19:46:19.027Z,5.90
2019-03-24T19:48:47.018Z,6.00
2019-03-24T19:51:15.397Z,5.90
2019-03-24T19:53:43.447Z,6.00
2019-03-24T19:56:11.418Z,5.90
2019-03-24T19:58:39.322Z,5.90
2019-03-24T20:01:07.305Z,5.80
2019-03-24T20:03:36.195Z,5.80
2019-03-24T20:06:04.191Z,5.70
2019-03-24T20:08:32.374Z,5.60
2019-03-24T20:11:00.472Z,5.50
2019-03-24T20:13:28.609Z,5.50
2019-03-24T20:15:56.753Z,5.50
2019-03-24T20:18:24.733Z,5.50
2019-03-24T20:20:52.777Z,5.40
2019-03-24T20:23:20.888Z,5.30
2019-03-24T20:25:48.893Z,5.20
2019-03-24T20:28:16.932Z,5.20
2019-03-24T20:30:44.979Z,5.10
2019-03-24T20:33:13.014Z,5.10
2019-03-24T20:35:41.036Z,5.00
2019-03-24T20:38:10.019Z,4.90
2019-03-24T20:40:38.095Z,4.80
2019-03-24T20:43:06.139Z,4.80
2019-03-24T20:45:34.149Z,4.70
2019-03-24T20:48:02.121Z,4.60
2019-03-24T20:50:29.999Z,4.50
2019-03-24T20:53:04.148Z,4.50
2019-03-24T20:55:28.186Z,4.50
2019-03-24T20:57:56.145Z,4.50
2019-03-24T21:00:24.127Z,4.50
2019-03-24T21:02:52.104Z,4.40
2019-03-24T21:05:20.011Z,4.30
2019-03-24T21:07:47.964Z,4.20
2019-03-24T21:10:15.968Z,4.20
2019-03-24T21:12:43.884Z,4.20
2019-03-24T21:15:11.895Z,4.10
2019-03-24T21:17:39.890Z,4.10
2019-03-24T21:20:07.781Z,4.10
2019-03-24T21:22:35.717Z,4.00
2019-03-24T21:25:03.722Z,3.90
2019-03-24T21:27:31.585Z,4.00
2019-03-24T21:29:59.474Z,3.90
2019-03-24T21:32:27.375Z,3.80
2019-03-24T21:34:55.283Z,3.70
2019-03-24T21:37:23.272Z,3.70
2019-03-24T21:39:51.264Z,3.60
2019-03-24T21:42:19.235Z,3.50
2019-03-24T21:44:48.083Z,3.50
2019-03-24T21:47:15.993Z,3.50
2019-03-24T21:49:43.911Z,3.40
2019-03-24T21:52:11.831Z,3.40
2019-03-24T21:54:39.819Z,3.40
2019-03-24T21:57:07.876Z,3.30
2019-03-24T21:59:35.881Z,3.20
2019-03-24T22:02:03.950Z,3.20
2019-03-24T22:04:31.993Z,3.10
2019-03-24T22:06:59.959Z,3.10
2019-03-24T22:09:29.824Z,3.10
2019-03-24T22:11:57.768Z,3.10
2019-03-24T22:14:25.646Z,3.00
2019-03-24T22:16:53.578Z,2.90
2019-03-24T22:19:21.457Z,2.90
2019-03-24T22:21:49.306Z,2.90
2019-03-24T22:24:17.223Z,2.90
2019-03-24T22:26:45.114Z,2.90
2019-03-24T22:29:13.004Z,2.80
2019-03-24T22:31:40.888Z,2.70
2019-03-24T22:34:08.948Z,2.70
2019-03-24T22:36:36.840Z,2.70
2019-03-24T22:39:04.978Z,2.60
2019-03-24T22:41:32.933Z,2.60
2019-03-24T22:44:00.831Z,2.50
2019-03-24T22:46:28.701Z,2.50
2019-03-24T22:48:56.613Z,2.60
2019-03-24T22:51:24.472Z,2.60
2019-03-24T22:54:02.811Z,2.60
2019-03-24T22:56:22.008Z,2.50
2019-03-24T22:58:50.070Z,2.60
2019-03-24T23:01:18.158Z,2.60
2019-03-24T23:03:46.161Z,2.60
2019-03-24T23:06:14.133Z,2.50
2019-03-24T23:08:42.147Z,2.50
2019-03-24T23:11:10.191Z,2.40
2019-03-24T23:13:38.183Z,2.40
2019-03-24T23:16:06.062Z,2.30
2019-03-24T23:18:34.371Z,2.20
2019-03-24T23:21:02.311Z,2.20
2019-03-24T23:23:30.304Z,2.20
2019-03-24T23:25:58.323Z,2.10
2019-03-24T23:28:26.215Z,2.10
2019-03-24T23:30:54.130Z,2.00
2019-03-24T23:33:22.141Z,2.00
2019-03-24T23:35:50.195Z,1.90
2019-03-24T23:38:18.193Z,1.80
2019-03-24T23:40:46.201Z,1.80
2019-03-24T23:43:14.241Z,1.80
2019-03-24T23:45:42.208Z,1.80
2019-03-24T23:48:10.430Z,1.70
2019-03-24T23:50:38.452Z,1.70
2019-03-24T23:53:06.331Z,1.60
2019-03-24T23:55:34.289Z,1.70
2019-03-24T23:58:02.265Z,1.70
